Airfield :
LOGIN :

Register | Disclaimer

   EN    FR    IT 

 










Legend :    VFR   Marginal VFR   IFR   Intensive IFR   Very Intensive IFR
Visi :
Ceiling :
>= 8 km
>= 3000ft
5 to 8 km
1000 to 3000 ft
1500m to 5 km
500 to 1000 ft
800 to 1500m
200 to 500 ft
< 800m
< 200 ft
Symbols :   Thunderstorms  Fog  Heavy snow  Heavy precipitations  Wind > 20 kt
SIGMETs :     Misc.  Thunderstorms  Icing  Turbulence  Mountain Waves  Volcanic Ashes






- Airport Elevation : 885 ft
- IATA code : BAS


LFSB - Bale-Mulhouse

CURRENT METAR :
  • 210900Z AUTO 16006KT 100V190 CAVOK 25/18 Q1010 TEMPO FEW040CB

EXPIRED METARs :
  • 210830Z AUTO 12006KT 080V150 CAVOK 24/18 Q1010 TEMPO FEW040CB
  • 210800Z AUTO 12007KT CAVOK 22/18 Q1010 TEMPO 4000 SHRA FEW040CB
  • 210730Z AUTO 14007KT 110V170 CAVOK 22/18 Q1010 TEMPO 4000 SHRA FEW040CB
  • 210700Z AUTO 15009KT 9999 FEW013 SCT150 22/20 Q1010 TEMPO 4000 SHRA FEW040CB
  • 210630Z AUTO VRB03KT 9999 FEW042 BKN080 BKN110 21/19 Q1010 TEMPO 4000 SHRA FEW040CB
  • 210600Z AUTO 13004KT 090V180 9999 SCT038/// SCT068/// BKN098/// ///TCU 21/19 Q1010 TEMPO 4000 SHRA FEW040CB
  • 210530Z AUTO 05003KT 020V120 9999 -RA FEW048/// SCT084/// OVC110/// ///CB 21/20 Q1010 TEMPO 4000 SHRA
  • 210500Z AUTO VRB03KT 9999 -RA ///CB 20/19 Q1010 TEMPO 4000 SHRA
  • 210430Z AUTO VRB03KT 9999 ///CB 20/19 Q1010 TEMPO 4000 SHRA

TAF TAF LFSB
Valid from the 21 at 06:00 until the 22 at 06:00 UTC


210500Z 2106/2206 VRB03KT CAVOK
TEMPO 2106/2206 -SHRA FEW040CB
PROB40
TEMPO 2106/2109 4000 SHRA
PROB40
TEMPO 2111/2119 4000 TSRA SCT030CB
BECMG 2115/2117 27010KT
PROB40
TEMPO 2123/2205 4000 SHRA SCT030CB
PROB30
TEMPO 2123/2205 TSRA
Met : +33 3 89 90 31 11



MET'MAP, your aeronautical weather chart ! - Copyright ORBIFLY December 2007 - Disclaimer

ORBIFLY MET'MAP TEAM :

Programming & Development : Alexandra Zaïnal
Original concept : Baudouin d'Aumeries
Technical & hardware support : Manuel Goepfert
Assistance : Marc-Olivier Méhu




SOURCES & CREDITS :

   NOAA